logo
Rechercher aéroport 
image banner adimage banner adimage banner ad
image banner ad

RPMV - Ipil Community Airport

Situé à Ipil, Philippines

ICAO - RPMV, IATA - IPE

Données fournies par Airmate  

Information générale

Coordonnées: N7°47'36" E122°36'25"
Élévation : 39 feet MSL.
Variation magnétique : -1° East
Voir autres Aéroports à Zamboanga Sibiguey

Données opérationnelles

Special qualification required
Heure actuelle UTC:
Heure actuelle locale:
Météo à : - ( 0 km )
METAR: UUOK 172112Z AUTO 23005MPS 9999 // ///007/// 19/18 Q1009 RMK QBB230 QFE739/0986
Voir NOTAMs / SUP AIP / TFR affectant cet aéroport [VIEW]
Fréquences de communication: [VIEW]

Pistes:

Identifiant RWYQFULongueur (ft)Largeur (ft)SurfaceLDA (ft)
18180°261898MACADAM2618
36261898MACADAM2618

Coordonnées de l'aéroport

Adresse: Ipil Philippines

Vue satellite de RPMV